createdAt,value
2022-09-12T00:00:23.677Z,1017.52
2022-09-12T00:01:27.030Z,1017.47
2022-09-12T00:02:30.208Z,1017.51
2022-09-12T00:04:04.876Z,1017.47
2022-09-12T00:05:07.527Z,1017.45
2022-09-12T00:06:10.280Z,1017.46
2022-09-12T00:07:51.629Z,1017.46
2022-09-12T00:08:54.476Z,1017.47
2022-09-12T00:09:57.149Z,1017.43
2022-09-12T00:11:31.680Z,1017.44
2022-09-12T00:12:34.404Z,1017.50
2022-09-12T00:13:41.304Z,1017.49
2022-09-12T00:15:16.435Z,1017.49
2022-09-12T00:16:19.450Z,1017.50
2022-09-12T00:17:22.509Z,1017.50
2022-09-12T00:18:57.366Z,1017.50
2022-09-12T00:20:00.194Z,1017.48
2022-09-12T00:21:02.891Z,1017.44
2022-09-12T00:22:37.374Z,1017.45
2022-09-12T00:23:40.264Z,1017.41
2022-09-12T00:24:43.132Z,1017.44
2022-09-12T00:26:17.697Z,1017.44
2022-09-12T00:27:20.585Z,1017.43
2022-09-12T00:28:23.557Z,1017.45
2022-09-12T00:29:58.306Z,1017.37
2022-09-12T00:31:00.961Z,1017.38
2022-09-12T00:32:04.186Z,1017.42
2022-09-12T00:33:38.700Z,1017.37
2022-09-12T00:34:41.350Z,1017.33
2022-09-12T00:35:44.001Z,1017.34
2022-09-12T00:37:18.595Z,1017.41
2022-09-12T00:38:21.486Z,1017.34
2022-09-12T00:39:24.107Z,1017.37
2022-09-12T00:40:58.949Z,1017.37
2022-09-12T00:42:01.734Z,1017.37
2022-09-12T00:43:04.599Z,1017.36
2022-09-12T00:44:39.280Z,1017.36
2022-09-12T00:45:42.071Z,1017.34
2022-09-12T00:46:44.915Z,1017.35
2022-09-12T00:48:19.523Z,1017.35
2022-09-12T00:49:22.343Z,1017.37
2022-09-12T00:50:25.050Z,1017.37
2022-09-12T00:51:59.605Z,1017.33
2022-09-12T00:53:02.294Z,1017.37
2022-09-12T00:54:05.187Z,1017.34
2022-09-12T00:55:39.620Z,1017.31
2022-09-12T00:56:42.406Z,1017.32
2022-09-12T00:57:45.380Z,1017.30
2022-09-12T00:59:19.918Z,1017.25
2022-09-12T01:00:23.263Z,1017.30
2022-09-12T01:01:30.466Z,1017.29
2022-09-12T01:02:35.706Z,1017.31
2022-09-12T01:04:10.233Z,1017.26
2022-09-12T01:05:12.810Z,1017.24
2022-09-12T01:06:15.582Z,1017.26
2022-09-12T01:07:51.666Z,1017.25
2022-09-12T01:08:54.467Z,1017.22
2022-09-12T01:09:57.458Z,1017.19
2022-09-12T01:11:32.204Z,1017.19
2022-09-12T01:12:35.065Z,1017.18
2022-09-12T01:13:37.799Z,1017.17
2022-09-12T01:15:12.316Z,1017.18
2022-09-12T01:16:15.118Z,1017.20
2022-09-12T01:17:18.037Z,1017.18
2022-09-12T01:18:53.003Z,1017.19
2022-09-12T01:19:55.682Z,1017.16
2022-09-12T01:20:58.412Z,1017.18
2022-09-12T01:22:32.997Z,1017.21
2022-09-12T01:23:35.808Z,1017.21
2022-09-12T01:24:38.464Z,1017.25
2022-09-12T01:26:13.019Z,1017.21
2022-09-12T01:27:16.137Z,1017.24
2022-09-12T01:28:18.841Z,1017.26
2022-09-12T01:29:53.650Z,1017.24
2022-09-12T01:30:56.447Z,1017.24
2022-09-12T01:31:59.306Z,1017.20
2022-09-12T01:33:34.055Z,1017.20
2022-09-12T01:34:36.873Z,1017.19
2022-09-12T01:35:39.741Z,1017.22
2022-09-12T01:37:14.602Z,1017.16
2022-09-12T01:38:17.415Z,1017.16
2022-09-12T01:39:20.367Z,1017.13
2022-09-12T01:40:55.273Z,1017.10
2022-09-12T01:41:57.906Z,1017.11
2022-09-12T01:43:00.683Z,1017.08
2022-09-12T01:44:35.296Z,1017.03
2022-09-12T01:45:38.182Z,1017.00
2022-09-12T01:46:41.175Z,1017.00
2022-09-12T01:48:15.821Z,1016.99
2022-09-12T01:49:18.486Z,1017.01
2022-09-12T01:50:21.233Z,1016.96
2022-09-12T01:51:55.924Z,1016.97
2022-09-12T01:52:58.668Z,1016.92
2022-09-12T01:54:01.260Z,1016.91
2022-09-12T01:55:35.725Z,1016.91
2022-09-12T01:56:38.457Z,1016.82
2022-09-12T01:57:41.133Z,1016.85
2022-09-12T01:59:15.674Z,1016.86
2022-09-12T02:00:23.190Z,1016.86
2022-09-12T02:01:25.965Z,1016.84
2022-09-12T02:02:29.037Z,1016.87
2022-09-12T02:04:03.798Z,1016.85
2022-09-12T02:05:06.484Z,1016.83
2022-09-12T02:06:09.415Z,1016.85
2022-09-12T02:07:44.246Z,1016.79
2022-09-12T02:08:47.461Z,1016.78
2022-09-12T02:09:50.198Z,1016.74
2022-09-12T02:11:29.869Z,1016.75
2022-09-12T02:12:32.710Z,1016.69
2022-09-12T02:13:35.447Z,1016.68
2022-09-12T02:15:09.949Z,1016.66
2022-09-12T02:16:12.670Z,1016.63
2022-09-12T02:17:15.769Z,1016.62
2022-09-12T02:18:50.416Z,1016.55
2022-09-12T02:19:53.179Z,1016.54
2022-09-12T02:21:07.213Z,1016.53
2022-09-12T02:22:41.620Z,1016.52
2022-09-12T02:23:44.347Z,1016.50
2022-09-12T02:24:47.034Z,1016.51
2022-09-12T02:26:21.709Z,1016.51
2022-09-12T02:27:24.484Z,1016.54
2022-09-12T02:28:27.177Z,1016.52
2022-09-12T02:30:01.842Z,1016.55
2022-09-12T02:31:04.722Z,1016.52
2022-09-12T02:32:07.481Z,1016.54
2022-09-12T02:33:41.966Z,1016.54
2022-09-12T02:34:44.862Z,1016.52
2022-09-12T02:35:47.528Z,1016.47
2022-09-12T02:37:22.363Z,1016.47
2022-09-12T02:38:25.012Z,1016.45
2022-09-12T02:39:27.757Z,1016.43
2022-09-12T02:41:08.895Z,1016.40
2022-09-12T02:42:11.655Z,1016.39
2022-09-12T02:43:14.494Z,1016.40
2022-09-12T02:44:49.004Z,1016.35
2022-09-12T02:45:51.862Z,1016.37
2022-09-12T02:46:54.855Z,1016.39
2022-09-12T02:48:29.213Z,1016.33
2022-09-12T02:49:33.124Z,1016.31
2022-09-12T02:50:36.070Z,1016.31
2022-09-12T02:52:15.172Z,1016.33
2022-09-12T02:53:17.890Z,1016.29
2022-09-12T02:54:20.976Z,1016.33
2022-09-12T02:55:55.532Z,1016.32
2022-09-12T02:56:58.280Z,1016.29
2022-09-12T02:58:00.902Z,1016.31
2022-09-12T02:59:35.606Z,1016.29
2022-09-12T03:00:23.803Z,1016.29
2022-09-12T03:01:26.842Z,1016.27
2022-09-12T03:02:29.996Z,1016.30
2022-09-12T03:04:04.477Z,1016.25
2022-09-12T03:05:07.265Z,1016.28
2022-09-12T03:06:10.006Z,1016.27
2022-09-12T03:07:44.551Z,1016.21
2022-09-12T03:08:47.410Z,1016.26
2022-09-12T03:09:50.160Z,1016.24
2022-09-12T03:11:24.715Z,1016.21
2022-09-12T03:12:27.569Z,1016.17
2022-09-12T03:13:30.397Z,1016.20
2022-09-12T03:15:04.886Z,1016.21
2022-09-12T03:16:07.803Z,1016.24
2022-09-12T03:17:10.950Z,1016.21
2022-09-12T03:18:45.927Z,1016.20
2022-09-12T03:19:48.653Z,1016.19
2022-09-12T03:20:51.564Z,1016.19
2022-09-12T03:22:26.073Z,1016.19
2022-09-12T03:23:28.988Z,1016.19
2022-09-12T03:24:31.629Z,1016.20
2022-09-12T03:26:06.137Z,1016.20
2022-09-12T03:27:08.828Z,1016.20
2022-09-12T03:28:11.508Z,1016.20
2022-09-12T03:29:46.160Z,1016.18
2022-09-12T03:30:49.223Z,1016.23
2022-09-12T03:31:52.199Z,1016.23
2022-09-12T03:33:27.393Z,1016.21
2022-09-12T03:34:30.109Z,1016.24
2022-09-12T03:35:34.480Z,1016.22
2022-09-12T03:37:09.012Z,1016.25
2022-09-12T03:38:11.699Z,1016.20
2022-09-12T03:39:14.701Z,1016.21
2022-09-12T03:40:54.116Z,1016.21
2022-09-12T03:41:57.414Z,1016.19
2022-09-12T03:43:00.112Z,1016.17
2022-09-12T03:44:34.828Z,1016.23
2022-09-12T03:45:37.798Z,1016.21
2022-09-12T03:46:40.836Z,1016.19
2022-09-12T03:48:15.395Z,1016.18
2022-09-12T03:49:18.212Z,1016.16
2022-09-12T03:50:20.895Z,1016.21
2022-09-12T03:51:55.516Z,1016.20
2022-09-12T03:52:58.252Z,1016.20
2022-09-12T03:54:04.589Z,1016.19
2022-09-12T03:55:38.856Z,1016.16
2022-09-12T03:56:41.662Z,1016.13
2022-09-12T03:57:44.282Z,1016.14
2022-09-12T03:59:19.075Z,1016.14
2022-09-12T04:00:28.973Z,1016.11
2022-09-12T04:01:32.114Z,1016.10
2022-09-12T04:02:35.226Z,1016.06
2022-09-12T04:04:09.983Z,1016.09
2022-09-12T04:05:54.379Z,1016.05
2022-09-12T04:06:57.485Z,1016.06
2022-09-12T04:08:00.566Z,1016.03
2022-09-12T04:09:35.573Z,1016.03
2022-09-12T04:10:38.580Z,1016.02
2022-09-12T04:11:41.607Z,1016.04
2022-09-12T04:13:16.594Z,1016.02
2022-09-12T04:14:19.462Z,1016.00
2022-09-12T04:15:22.514Z,1015.98
2022-09-12T04:16:57.765Z,1015.99
2022-09-12T04:18:05.580Z,1015.99
2022-09-12T04:19:09.135Z,1015.94
2022-09-12T04:20:44.209Z,1015.98
2022-09-12T04:21:47.226Z,1015.95
2022-09-12T04:22:50.349Z,1015.90
2022-09-12T04:24:25.385Z,1015.91
2022-09-12T04:25:28.353Z,1015.94
2022-09-12T04:26:31.161Z,1015.89
2022-09-12T04:28:05.954Z,1015.88
2022-09-12T04:29:08.848Z,1015.88
2022-09-12T04:30:11.859Z,1015.89
2022-09-12T04:31:47.377Z,1015.92
2022-09-12T04:32:50.486Z,1015.94
2022-09-12T04:33:59.411Z,1015.96
2022-09-12T04:35:34.226Z,1015.94
2022-09-12T04:36:37.353Z,1015.91
2022-09-12T04:37:40.229Z,1015.90
2022-09-12T04:39:15.032Z,1015.89
2022-09-12T04:40:17.981Z,1015.90
2022-09-12T04:41:20.992Z,1015.92
2022-09-12T04:42:55.759Z,1015.96
2022-09-12T04:44:04.076Z,1015.91
2022-09-12T04:45:06.906Z,1015.94
2022-09-12T04:46:41.857Z,1015.92
2022-09-12T04:47:44.655Z,1015.92
2022-09-12T04:48:47.873Z,1015.91
2022-09-12T04:50:26.398Z,1015.92
2022-09-12T04:51:29.430Z,1015.96
2022-09-12T04:52:32.544Z,1015.92
2022-09-12T04:54:07.381Z,1015.95
2022-09-12T04:55:10.258Z,1015.94
2022-09-12T04:56:13.004Z,1015.96
2022-09-12T04:57:47.888Z,1015.94
2022-09-12T04:58:50.813Z,1015.89
2022-09-12T04:59:53.714Z,1015.93
2022-09-12T05:00:23.870Z,1015.93
2022-09-12T05:01:27.036Z,1015.93
2022-09-12T05:02:30.643Z,1015.88
2022-09-12T05:04:05.955Z,1015.92
2022-09-12T05:05:09.053Z,1015.98
2022-09-12T05:06:11.997Z,1015.94
2022-09-12T05:07:47.130Z,1015.97
2022-09-12T05:08:50.407Z,1015.95
2022-09-12T05:09:53.561Z,1015.96
2022-09-12T05:12:05.877Z,1015.99
2022-09-12T05:13:08.906Z,1015.95
2022-09-12T05:14:11.820Z,1015.99
2022-09-12T05:15:46.516Z,1015.97
2022-09-12T05:16:54.954Z,1015.96
2022-09-12T05:17:57.938Z,1015.98
2022-09-12T05:19:33.001Z,1015.99
2022-09-12T05:20:35.780Z,1015.98
2022-09-12T05:21:38.673Z,1015.98
2022-09-12T05:23:13.378Z,1015.94
2022-09-12T05:24:16.147Z,1015.90
2022-09-12T05:25:19.044Z,1015.86
2022-09-12T05:26:53.765Z,1015.92
2022-09-12T05:28:01.808Z,1015.89
2022-09-12T05:29:04.732Z,1015.87
2022-09-12T05:30:39.862Z,1015.88
2022-09-12T05:31:42.882Z,1015.91
2022-09-12T05:32:45.736Z,1015.86
2022-09-12T05:34:22.750Z,1015.92
2022-09-12T05:35:25.898Z,1015.90
2022-09-12T05:36:28.835Z,1015.95
2022-09-12T05:38:03.456Z,1015.92
2022-09-12T05:39:06.258Z,1015.87
2022-09-12T05:40:09.553Z,1015.92
2022-09-12T05:41:44.566Z,1015.89
2022-09-12T05:42:47.447Z,1015.88
2022-09-12T05:43:50.250Z,1015.88
2022-09-12T05:45:25.123Z,1015.88
2022-09-12T05:46:28.494Z,1015.90
2022-09-12T05:47:31.522Z,1015.92
2022-09-12T05:49:08.191Z,1015.95
2022-09-12T05:50:11.155Z,1015.93
2022-09-12T05:51:14.014Z,1016.00
2022-09-12T05:52:48.783Z,1015.94
2022-09-12T05:53:51.858Z,1015.98
2022-09-12T05:54:54.847Z,1015.97
2022-09-12T05:56:29.769Z,1016.01
2022-09-12T05:57:32.572Z,1015.98
2022-09-12T05:58:35.603Z,1016.03
2022-09-12T06:00:23.345Z,1016.02
2022-09-12T06:01:31.260Z,1016.05
2022-09-12T06:02:35.052Z,1016.02
2022-09-12T06:04:09.827Z,1016.06
2022-09-12T06:05:12.576Z,1016.02
2022-09-12T06:06:15.561Z,1016.01
2022-09-12T06:07:50.504Z,1016.06
2022-09-12T06:08:53.969Z,1016.07
2022-09-12T06:09:56.861Z,1016.06
2022-09-12T06:11:31.602Z,1016.08
2022-09-12T06:12:34.600Z,1016.07
2022-09-12T06:13:37.444Z,1016.05
2022-09-12T06:15:12.311Z,1016.03
2022-09-12T06:16:15.130Z,1015.99
2022-09-12T06:17:18.592Z,1015.98
2022-09-12T06:18:53.595Z,1015.98
2022-09-12T06:19:56.757Z,1015.99
2022-09-12T06:20:59.752Z,1015.94
2022-09-12T06:22:34.502Z,1015.92
2022-09-12T06:23:37.688Z,1015.94
2022-09-12T06:24:40.743Z,1015.89
2022-09-12T06:26:21.748Z,1015.92
2022-09-12T06:27:24.649Z,1015.90
2022-09-12T06:28:27.502Z,1015.88
2022-09-12T06:30:02.620Z,1015.90
2022-09-12T06:31:11.635Z,1015.87
2022-09-12T06:32:14.628Z,1015.87
2022-09-12T06:33:49.504Z,1015.81
2022-09-12T06:34:52.823Z,1015.85
2022-09-12T06:35:55.805Z,1015.83
2022-09-12T06:37:36.072Z,1015.82
2022-09-12T06:38:39.006Z,1015.81
2022-09-12T06:39:41.978Z,1015.82
2022-09-12T06:41:17.123Z,1015.85
2022-09-12T06:42:20.148Z,1015.82
2022-09-12T06:43:23.127Z,1015.84
2022-09-12T06:44:57.981Z,1015.87
2022-09-12T06:46:01.582Z,1015.84
2022-09-12T06:47:04.883Z,1015.85
2022-09-12T06:48:44.195Z,1015.89
2022-09-12T06:49:47.496Z,1015.87
2022-09-12T06:50:50.545Z,1015.87
2022-09-12T06:52:25.139Z,1015.90
2022-09-12T06:53:28.183Z,1015.94
2022-09-12T06:54:31.078Z,1015.93
2022-09-12T06:56:14.161Z,1015.98
2022-09-12T06:57:17.013Z,1015.97
2022-09-12T06:58:19.888Z,1015.96
2022-09-12T06:59:54.820Z,1015.94
2022-09-12T07:00:23.017Z,1015.94
2022-09-12T07:01:26.142Z,1015.95
2022-09-12T07:02:29.834Z,1015.98
2022-09-12T07:04:04.839Z,1015.95
2022-09-12T07:05:07.663Z,1015.97
2022-09-12T07:06:10.879Z,1015.98
2022-09-12T07:07:45.940Z,1015.91
2022-09-12T07:08:48.820Z,1015.91
2022-09-12T07:09:51.723Z,1015.91
2022-09-12T07:11:26.663Z,1015.89
2022-09-12T07:12:29.799Z,1015.86
2022-09-12T07:13:32.821Z,1015.86
2022-09-12T07:15:07.678Z,1015.88
2022-09-12T07:16:10.671Z,1015.80
2022-09-12T07:17:17.774Z,1015.76
2022-09-12T07:18:52.529Z,1015.76
2022-09-12T07:19:55.508Z,1015.74
2022-09-12T07:20:58.461Z,1015.79
2022-09-12T07:22:33.385Z,1015.81
2022-09-12T07:23:36.414Z,1015.88
2022-09-12T07:24:39.641Z,1015.81
2022-09-12T07:26:14.827Z,1015.79
2022-09-12T07:27:17.758Z,1015.79
2022-09-12T07:28:20.613Z,1015.77
2022-09-12T07:30:29.341Z,1015.82
2022-09-12T07:31:32.484Z,1015.82
2022-09-12T07:32:35.349Z,1015.81
2022-09-12T07:34:10.258Z,1015.86
2022-09-12T07:35:13.150Z,1015.84
2022-09-12T07:36:16.392Z,1015.88
2022-09-12T07:37:51.282Z,1015.86
2022-09-12T07:38:57.228Z,1015.85
2022-09-12T07:40:00.853Z,1015.83
2022-09-12T07:41:35.988Z,1015.78
2022-09-12T07:42:39.078Z,1015.81
2022-09-12T07:43:42.322Z,1015.83
2022-09-12T07:45:17.509Z,1015.84
2022-09-12T07:46:20.979Z,1015.80
2022-09-12T07:47:23.956Z,1015.77
2022-09-12T07:48:58.904Z,1015.82
2022-09-12T07:50:01.843Z,1015.79
2022-09-12T07:51:04.661Z,1015.75
2022-09-12T07:52:39.532Z,1015.74
2022-09-12T07:53:42.496Z,1015.72
2022-09-12T07:54:45.624Z,1015.72
2022-09-12T07:56:20.505Z,1015.74
2022-09-12T07:57:31.029Z,1015.76
2022-09-12T07:58:34.132Z,1015.75
2022-09-12T08:00:23.658Z,1015.73
2022-09-12T08:01:26.904Z,1015.74
2022-09-12T08:02:30.501Z,1015.70
2022-09-12T08:04:05.527Z,1015.68
2022-09-12T08:05:08.486Z,1015.70
2022-09-12T08:06:11.464Z,1015.74
2022-09-12T08:07:46.547Z,1015.70
2022-09-12T08:08:54.858Z,1015.70
2022-09-12T08:09:57.700Z,1015.69
2022-09-12T08:11:32.257Z,1015.69
2022-09-12T08:12:35.352Z,1015.72
2022-09-12T08:13:38.256Z,1015.73
2022-09-12T08:15:18.980Z,1015.80
2022-09-12T08:16:22.379Z,1015.79
2022-09-12T08:17:25.357Z,1015.79
2022-09-12T08:18:59.989Z,1015.83
2022-09-12T08:20:03.039Z,1015.84
2022-09-12T08:21:06.089Z,1015.84
2022-09-12T08:22:41.384Z,1015.89
2022-09-12T08:23:44.509Z,1015.88
2022-09-12T08:24:47.299Z,1015.85
2022-09-12T08:26:22.233Z,1015.82
2022-09-12T08:27:25.153Z,1015.82
2022-09-12T08:28:28.065Z,1015.84
2022-09-12T08:30:02.782Z,1015.84
2022-09-12T08:31:06.071Z,1015.81
2022-09-12T08:32:09.302Z,1015.83
2022-09-12T08:33:44.441Z,1015.81
2022-09-12T08:34:47.289Z,1015.83
2022-09-12T08:35:50.502Z,1015.82
2022-09-12T08:37:25.440Z,1015.85
2022-09-12T08:38:28.752Z,1015.82
2022-09-12T08:39:31.598Z,1015.79
2022-09-12T08:41:07.002Z,1015.79
2022-09-12T08:43:13.935Z,1015.75
2022-09-12T08:44:54.298Z,1015.77
2022-09-12T08:45:57.306Z,1015.76
2022-09-12T08:47:00.370Z,1015.72
2022-09-12T08:48:35.298Z,1015.72
2022-09-12T08:49:38.354Z,1015.72
2022-09-12T08:50:41.426Z,1015.73
2022-09-12T08:52:19.110Z,1015.75
2022-09-12T08:53:22.261Z,1015.76
2022-09-12T08:54:25.372Z,1015.75
2022-09-12T08:56:00.458Z,1015.80
2022-09-12T08:57:03.559Z,1015.75
2022-09-12T08:58:06.683Z,1015.72
2022-09-12T08:59:41.571Z,1015.72
2022-09-12T09:00:23.355Z,1015.73
2022-09-12T09:01:26.732Z,1015.70
2022-09-12T09:02:30.451Z,1015.71
2022-09-12T09:04:06.310Z,1015.71
2022-09-12T09:05:14.553Z,1015.71
2022-09-12T09:06:17.708Z,1015.71
2022-09-12T09:07:52.790Z,1015.69
2022-09-12T09:08:55.648Z,1015.72
2022-09-12T09:09:58.506Z,1015.67
2022-09-12T09:11:33.549Z,1015.68
2022-09-12T09:12:36.756Z,1015.59
2022-09-12T09:13:39.504Z,1015.58
2022-09-12T09:15:14.219Z,1015.57
2022-09-12T09:16:17.907Z,1015.57
2022-09-12T09:17:20.877Z,1015.57
2022-09-12T09:18:55.520Z,1015.52
2022-09-12T09:20:02.221Z,1015.50
2022-09-12T09:21:05.371Z,1015.48
2022-09-12T09:22:41.968Z,1015.47
2022-09-12T09:23:45.693Z,1015.48
2022-09-12T09:24:48.825Z,1015.46
2022-09-12T09:26:23.696Z,1015.45
2022-09-12T09:27:50.890Z,1015.48
2022-09-12T09:28:53.569Z,1015.44
2022-09-12T09:30:28.478Z,1015.46
2022-09-12T09:31:31.844Z,1015.45
2022-09-12T09:32:34.988Z,1015.44
2022-09-12T09:34:09.679Z,1015.45
2022-09-12T09:35:12.855Z,1015.43
2022-09-12T09:36:22.463Z,1015.44
2022-09-12T09:38:03.678Z,1015.39
2022-09-12T09:39:06.847Z,1015.41
2022-09-12T09:40:10.189Z,1015.39
2022-09-12T09:41:45.488Z,1015.36
2022-09-12T09:42:48.677Z,1015.36
2022-09-12T09:43:51.672Z,1015.34
2022-09-12T09:45:26.982Z,1015.34
2022-09-12T09:46:34.414Z,1015.31
2022-09-12T09:47:37.613Z,1015.32
2022-09-12T09:49:13.822Z,1015.30
2022-09-12T09:50:17.002Z,1015.33
2022-09-12T09:51:20.040Z,1015.28
2022-09-12T09:52:57.739Z,1015.31
2022-09-12T09:54:00.689Z,1015.29
2022-09-12T09:55:03.515Z,1015.30
2022-09-12T09:56:38.511Z,1015.28
2022-09-12T09:57:41.712Z,1015.24
2022-09-12T09:58:44.952Z,1015.17
2022-09-12T10:00:24.248Z,1015.18
2022-09-12T10:01:27.485Z,1015.17
2022-09-12T10:02:35.477Z,1015.17
2022-09-12T10:04:11.701Z,1015.19
2022-09-12T10:05:14.634Z,1015.15
2022-09-12T10:06:17.812Z,1015.10
2022-09-12T10:07:52.874Z,1015.11
2022-09-12T10:08:55.971Z,1015.07
2022-09-12T10:09:58.935Z,1015.08
2022-09-12T10:11:33.873Z,1015.04
2022-09-12T10:12:43.007Z,1015.00
2022-09-12T10:13:46.075Z,1015.02
2022-09-12T10:15:21.033Z,1014.98
2022-09-12T10:16:24.446Z,1015.01
2022-09-12T10:17:31.777Z,1014.95
2022-09-12T10:19:08.708Z,1014.92
2022-09-12T10:20:32.023Z,1014.92
2022-09-12T10:21:34.903Z,1014.89
2022-09-12T10:23:11.184Z,1014.85
2022-09-12T10:24:14.194Z,1014.82
2022-09-12T10:25:17.328Z,1014.82
2022-09-12T10:26:56.403Z,1014.79
2022-09-12T10:27:59.802Z,1014.83
2022-09-12T10:29:02.667Z,1014.82
2022-09-12T10:30:37.661Z,1014.79
2022-09-12T10:31:40.969Z,1014.83
2022-09-12T10:32:44.260Z,1014.79
2022-09-12T10:34:19.241Z,1014.74
2022-09-12T10:35:22.305Z,1014.78
2022-09-12T10:36:25.398Z,1014.71
2022-09-12T10:38:03.602Z,1014.69
2022-09-12T10:39:06.641Z,1014.70
2022-09-12T10:40:10.197Z,1014.73
2022-09-12T10:41:45.505Z,1014.70
2022-09-12T10:42:48.577Z,1014.72
2022-09-12T10:43:51.990Z,1014.70
2022-09-12T10:45:27.145Z,1014.70
2022-09-12T10:46:30.422Z,1014.66
2022-09-12T10:47:33.447Z,1014.65
2022-09-12T10:49:08.501Z,1014.64
2022-09-12T10:50:22.126Z,1014.62
2022-09-12T10:51:25.674Z,1014.69
2022-09-12T10:53:00.748Z,1014.65
2022-09-12T10:54:04.002Z,1014.62
2022-09-12T10:55:07.059Z,1014.62
2022-09-12T10:56:42.121Z,1014.63
2022-09-12T10:57:45.219Z,1014.56
2022-09-12T10:58:48.565Z,1014.59
2022-09-12T11:00:23.994Z,1014.56
2022-09-12T11:01:27.334Z,1014.56
2022-09-12T11:02:31.132Z,1014.57
2022-09-12T11:04:06.476Z,1014.56
2022-09-12T11:05:09.361Z,1014.52
2022-09-12T11:06:18.231Z,1014.54
2022-09-12T11:07:53.222Z,1014.56
2022-09-12T11:08:55.997Z,1014.51
2022-09-12T11:09:59.036Z,1014.52
2022-09-12T11:11:38.885Z,1014.48
2022-09-12T11:12:41.860Z,1014.48
2022-09-12T11:13:45.212Z,1014.50
2022-09-12T11:15:20.184Z,1014.43
2022-09-12T11:16:23.723Z,1014.40
2022-09-12T11:17:29.399Z,1014.41
2022-09-12T11:19:04.436Z,1014.38
2022-09-12T11:20:07.406Z,1014.37
2022-09-12T11:21:10.489Z,1014.30
2022-09-12T11:22:45.192Z,1014.29
2022-09-12T11:23:48.245Z,1014.30
2022-09-12T11:24:51.205Z,1014.25
2022-09-12T11:26:26.241Z,1014.25
2022-09-12T11:27:29.350Z,1014.26
2022-09-12T11:28:32.351Z,1014.24
2022-09-12T11:30:10.869Z,1014.24
2022-09-12T11:31:14.188Z,1014.22
2022-09-12T11:32:17.371Z,1014.26
2022-09-12T11:33:56.817Z,1014.20
2022-09-12T11:35:00.202Z,1014.18
2022-09-12T11:36:09.273Z,1014.19
2022-09-12T11:37:44.223Z,1014.18
2022-09-12T11:38:47.633Z,1014.20
2022-09-12T11:39:55.182Z,1014.22
2022-09-12T11:41:31.082Z,1014.20
2022-09-12T11:42:34.380Z,1014.17
2022-09-12T11:43:37.311Z,1014.18
2022-09-12T11:45:12.442Z,1014.18
2022-09-12T11:46:15.868Z,1014.18
2022-09-12T11:47:19.356Z,1014.16
2022-09-12T11:48:54.400Z,1014.22
2022-09-12T11:49:57.411Z,1014.20
2022-09-12T11:51:00.652Z,1014.24
2022-09-12T11:52:35.604Z,1014.21
2022-09-12T11:53:38.751Z,1014.20
2022-09-12T11:54:41.805Z,1014.22
2022-09-12T11:56:23.160Z,1014.21
2022-09-12T11:57:26.069Z,1014.18
2022-09-12T11:58:29.360Z,1014.20
2022-09-12T12:00:23.398Z,1014.18
2022-09-12T12:01:26.405Z,1014.14
2022-09-12T12:02:37.134Z,1014.09
2022-09-12T12:04:12.887Z,1014.12
2022-09-12T12:05:16.293Z,1014.12
2022-09-12T12:06:19.600Z,1014.07
2022-09-12T12:07:57.117Z,1014.03
2022-09-12T12:09:00.371Z,1014.09
2022-09-12T12:10:03.486Z,1014.08
2022-09-12T12:11:38.335Z,1014.04
2022-09-12T12:12:41.429Z,1014.09
2022-09-12T12:13:44.532Z,1014.02
2022-09-12T12:15:19.549Z,1014.03
2022-09-12T12:16:23.010Z,1014.04
2022-09-12T12:17:26.136Z,1014.06
2022-09-12T12:19:01.097Z,1014.05
2022-09-12T12:20:14.459Z,1014.08
2022-09-12T12:21:17.803Z,1014.03
2022-09-12T12:22:52.823Z,1014.02
2022-09-12T12:23:55.618Z,1014.04
2022-09-12T12:24:58.703Z,1014.04
2022-09-12T12:26:39.910Z,1014.04
2022-09-12T12:27:43.106Z,1014.03
2022-09-12T12:28:46.664Z,1014.03
2022-09-12T12:30:26.577Z,1014.01
2022-09-12T12:31:29.952Z,1014.04
2022-09-12T12:32:33.033Z,1013.96
2022-09-12T12:34:08.217Z,1013.98
2022-09-12T12:35:11.312Z,1013.98
2022-09-12T12:36:14.250Z,1013.93
2022-09-12T12:37:53.498Z,1013.94
2022-09-12T12:38:56.949Z,1013.90
2022-09-12T12:40:00.213Z,1013.91
2022-09-12T12:41:35.679Z,1013.92
2022-09-12T12:42:39.055Z,1013.89
2022-09-12T12:43:42.302Z,1013.91
2022-09-12T12:45:17.626Z,1013.86
2022-09-12T12:46:21.193Z,1013.86
2022-09-12T12:47:24.694Z,1013.80
2022-09-12T12:49:05.541Z,1013.80
2022-09-12T12:50:08.690Z,1013.78
2022-09-12T12:51:11.841Z,1013.78
2022-09-12T12:52:46.938Z,1013.68
2022-09-12T12:53:50.082Z,1013.63
2022-09-12T12:54:59.211Z,1013.63
2022-09-12T12:56:34.462Z,1013.62
2022-09-12T12:57:37.695Z,1013.61
2022-09-12T12:58:40.978Z,1013.55
2022-09-12T13:00:24.194Z,1013.52
2022-09-12T13:01:27.567Z,1013.55
2022-09-12T13:02:31.298Z,1013.56
2022-09-12T13:04:06.736Z,1013.45
2022-09-12T13:05:09.944Z,1013.44
2022-09-12T13:06:13.223Z,1013.45
2022-09-12T13:07:54.208Z,1013.45
2022-09-12T13:08:57.338Z,1013.40
2022-09-12T13:10:00.402Z,1013.46
2022-09-12T13:11:40.581Z,1013.44
2022-09-12T13:12:43.635Z,1013.41
2022-09-12T13:13:46.604Z,1013.37
2022-09-12T13:15:21.706Z,1013.38
2022-09-12T13:16:25.167Z,1013.36
2022-09-12T13:17:28.494Z,1013.31
2022-09-12T13:19:03.387Z,1013.28
2022-09-12T13:20:38.392Z,1013.28
2022-09-12T13:21:41.413Z,1013.29
2022-09-12T13:23:16.363Z,1013.27
2022-09-12T13:24:19.508Z,1013.26
2022-09-12T13:25:22.761Z,1013.22
2022-09-12T13:26:58.074Z,1013.24
2022-09-12T13:28:01.246Z,1013.16
2022-09-12T13:29:04.389Z,1013.15
2022-09-12T13:30:39.932Z,1013.05
2022-09-12T13:31:47.226Z,1013.02
2022-09-12T13:32:50.774Z,1012.96
2022-09-12T13:34:25.829Z,1013.00
2022-09-12T13:35:29.185Z,1012.95
2022-09-12T13:36:32.351Z,1013.03
2022-09-12T13:38:07.357Z,1013.01
2022-09-12T13:39:10.472Z,1013.01
2022-09-12T13:40:13.904Z,1013.00
2022-09-12T13:41:49.523Z,1013.03
2022-09-12T13:42:52.617Z,1012.99
2022-09-12T13:43:55.692Z,1012.96
2022-09-12T13:45:30.983Z,1012.96
2022-09-12T13:46:34.524Z,1012.88
2022-09-12T13:47:37.577Z,1012.92
2022-09-12T13:49:17.083Z,1012.87
2022-09-12T13:50:20.207Z,1012.81
2022-09-12T13:51:23.304Z,1012.81
2022-09-12T13:52:58.290Z,1012.75
2022-09-12T13:54:01.556Z,1012.74
2022-09-12T13:55:10.507Z,1012.74
2022-09-12T13:56:45.571Z,1012.70
2022-09-12T13:57:48.565Z,1012.75
2022-09-12T13:58:52.082Z,1012.77
2022-09-12T14:00:23.751Z,1012.75
2022-09-12T14:01:27.220Z,1012.73
2022-09-12T14:02:30.967Z,1012.76
2022-09-12T14:04:10.300Z,1012.70
2022-09-12T14:05:13.168Z,1012.75
2022-09-12T14:06:16.268Z,1012.72
2022-09-12T14:07:51.712Z,1012.70
2022-09-12T14:08:54.963Z,1012.69
2022-09-12T14:09:58.244Z,1012.66
2022-09-12T14:11:33.545Z,1012.67
2022-09-12T14:12:36.517Z,1012.62
2022-09-12T14:13:39.623Z,1012.61
2022-09-12T14:15:14.944Z,1012.62
2022-09-12T14:16:18.684Z,1012.59
2022-09-12T14:17:29.519Z,1012.58
2022-09-12T14:19:04.838Z,1012.58
2022-09-12T14:20:08.033Z,1012.62
2022-09-12T14:21:11.112Z,1012.54
2022-09-12T14:22:50.533Z,1012.58
2022-09-12T14:23:54.241Z,1012.58
2022-09-12T14:24:57.501Z,1012.62
2022-09-12T14:26:32.498Z,1012.60
2022-09-12T14:27:35.856Z,1012.60
2022-09-12T14:28:39.033Z,1012.55
2022-09-12T14:30:14.219Z,1012.57
2022-09-12T14:31:18.156Z,1012.58
2022-09-12T14:32:21.769Z,1012.63
2022-09-12T14:33:56.919Z,1012.61
2022-09-12T14:35:00.089Z,1012.61
2022-09-12T14:36:03.292Z,1012.66
2022-09-12T14:37:38.381Z,1012.61
2022-09-12T14:38:41.797Z,1012.60
2022-09-12T14:39:45.318Z,1012.61
2022-09-12T14:41:21.388Z,1012.62
2022-09-12T14:42:24.700Z,1012.60
2022-09-12T14:43:27.843Z,1012.64
2022-09-12T14:45:03.119Z,1012.60
2022-09-12T14:46:06.591Z,1012.59
2022-09-12T14:47:09.994Z,1012.58
2022-09-12T14:48:45.165Z,1012.52
2022-09-12T14:49:48.360Z,1012.49
2022-09-12T14:50:57.356Z,1012.46
2022-09-12T14:52:37.319Z,1012.53
2022-09-12T14:53:40.485Z,1012.54
2022-09-12T14:54:44.035Z,1012.49
2022-09-12T14:56:18.942Z,1012.47
2022-09-12T14:57:21.929Z,1012.51
2022-09-12T14:58:25.008Z,1012.44